Airfield :
LOGIN :

Register | Disclaimer

   EN    FR    IT 

 










Legend :    VFR   Marginal VFR   IFR   Intensive IFR   Very Intensive IFR
Visi :
Ceiling :
>= 8 km
>= 3000ft
5 to 8 km
1000 to 3000 ft
1500m to 5 km
500 to 1000 ft
800 to 1500m
200 to 500 ft
< 800m
< 200 ft
Symbols :   Thunderstorms  Fog  Heavy snow  Heavy precipitations  Wind > 20 kt
SIGMETs :     Misc.  Thunderstorms  Icing  Turbulence  Mountain Waves  Volcanic Ashes







- Airport Elevation : 306 ft
- IATA code : EMA
- Download approach charts


EGNX - Nottingham East Midlands

CURRENT METAR :
  • 201950Z 28008KT 9999 BKN048 17/11 Q1012

EXPIRED METARs :
  • 201920Z 29007KT 9999 BKN043 17/11 Q1012
  • 201850Z 31009KT 9999 SCT035 17/11 Q1011
  • 201820Z 29012KT 260V320 9999 FEW030 18/12 Q1011
  • 201750Z 29012KT 9999 FEW035 19/12 Q1010
  • 201720Z 30013KT 9999 FEW035 19/12 Q1009

TAF TAF EGNX
Valid from the 20 at 18:00 until the 21 at 18:00 UTC


201656Z 2018/2118 28012KT 9999 SCT040
BECMG 2100/2103 22008KT
ATIS : +44 1332 852 852 (ext 3201)
No reported NOTAMs for that airfield.



MET'MAP, your aeronautical weather chart ! - Copyright ORBIFLY December 2007 - Disclaimer

ORBIFLY MET'MAP TEAM :

Programming & Development : Alexandra Zaïnal
Concept & Development : Baudouin d'Aumeries
Co-Development & Prog : Marc-Olivier Méhu
Technical & hardware support : Manuel Goepfert

Contact : metmap@orbifly.com




SOURCES & CREDITS :

   NOAA